PWSweather.com
Personal Weather Stations
Station Observations

YeovilGB

Lat: 50.949, Lon: -2.627

Elevation: 70

Station Type: Vantage Pro

http://www.yeovil-weather.me.uk/

High Low Average
Temperature 51.0°F10.6°C 38.2°F3.4°C 44.9°F7.2°C
Dew Point 44.1°F6.7°C 36.4°F2.4°C 40.8°F4.9°C
Winds 12.7 mph 20.4 kmh Calm Calm 4.0 mph SSW6.4 kmh SSW
Wind Gusts 21.9 mph35.2 kmh -- 8.0 mph12.9 kmh
Humidity 94% 71% 86%
Pressure 29.83 in1010.2 mb 29.70 in1005.8 mb -
Precipitation 0.03 in0.8 mm - -
Hour Temp Dew Point Humidity Winds Wind Gusts Pressure Precip Precip Rate Daily Precip Total
12:00 AM 44.9°F7.2°C 41.9°F5.5°C 89% 3.5 mph SW5.6 kmh SW 5.8 mph9.3 kmh 29.77 in1008.1 mb - 0.00 in0.0 mm 0.00 in0.0 mm
12:10 AM 45.0°F7.2°C 41.6°F5.3°C 88% 4.6 mph SSW7.4 kmh SSW 11.5 mph18.5 kmh 29.77 in1008.1 mb - 0.00 in0.0 mm 0.00 in0.0 mm
12:20 AM 44.9°F7.2°C 41.6°F5.3°C 88% 1.2 mph SSW1.9 kmh SSW -- 29.76 in1007.8 mb - 0.00 in0.0 mm 0.00 in0.0 mm
12:30 AM 44.9°F7.2°C 41.9°F5.5°C 89% Calm Calm 9.2 mph14.8 kmh 29.76 in1007.8 mb - 0.00 in0.0 mm 0.00 in0.0 mm
12:40 AM 44.8°F7.1°C 41.7°F5.4°C 89% 2.3 mph SSW3.7 kmh SSW 5.8 mph9.3 kmh 29.76 in1007.8 mb - 0.00 in0.0 mm 0.00 in0.0 mm
12:50 AM 44.8°F7.1°C 42.0°F5.6°C 90% 1.2 mph SSW1.9 kmh SSW -- 29.75 in1007.5 mb - 0.00 in0.0 mm 0.00 in0.0 mm
01:00 AM 44.9°F7.2°C 42.1°F5.6°C 90% 5.8 mph S9.3 kmh S 10.4 mph16.7 kmh 29.76 in1007.8 mb - 0.00 in0.0 mm 0.00 in0.0 mm
01:10 AM 45.1°F7.3°C 42.6°F5.9°C 91% 2.3 mph S3.7 kmh S 8.1 mph13.0 kmh 29.76 in1007.8 mb - 0.00 in0.0 mm 0.00 in0.0 mm
01:20 AM 45.3°F7.4°C 42.8°F6.0°C 91% 4.6 mph SSW7.4 kmh SSW 9.2 mph14.8 kmh 29.76 in1007.8 mb - 0.00 in0.0 mm 0.00 in0.0 mm
01:30 AM 45.5°F7.5°C 43.1°F6.2°C 91% 6.9 mph SSW11.1 kmh SSW 12.7 mph20.4 kmh 29.76 in1007.8 mb - 0.00 in0.0 mm 0.00 in0.0 mm
01:40 AM 45.6°F7.6°C 42.8°F6.0°C 90% 6.9 mph SSW11.1 kmh SSW 11.5 mph18.5 kmh 29.76 in1007.8 mb - 0.00 in0.0 mm 0.00 in0.0 mm
01:50 AM 45.5°F7.5°C 42.4°F5.8°C 89% 4.6 mph SSW7.4 kmh SSW 11.5 mph18.5 kmh 29.76 in1007.8 mb - 0.00 in0.0 mm 0.00 in0.0 mm
02:00 AM 45.5°F7.5°C 42.1°F5.6°C 88% 3.5 mph SSW5.6 kmh SSW 6.9 mph11.1 kmh 29.76 in1007.8 mb - 0.00 in0.0 mm 0.00 in0.0 mm
02:10 AM 45.2°F7.3°C 41.9°F5.5°C 88% 3.5 mph SSW5.6 kmh SSW 6.9 mph11.1 kmh 29.76 in1007.8 mb - 0.00 in0.0 mm 0.00 in0.0 mm
02:20 AM 45.1°F7.3°C 41.8°F5.4°C 88% Calm Calm -- 29.76 in1007.8 mb - 0.00 in0.0 mm 0.00 in0.0 mm
02:30 AM 44.9°F7.2°C 41.9°F5.5°C 89% 1.2 mph SSW1.9 kmh SSW 8.1 mph13.0 kmh 29.76 in1007.8 mb - 0.00 in0.0 mm 0.00 in0.0 mm
02:40 AM 45.0°F7.2°C 41.9°F5.5°C 89% 3.5 mph SSW5.6 kmh SSW 4.6 mph7.4 kmh 29.75 in1007.5 mb - 0.00 in0.0 mm 0.00 in0.0 mm
02:50 AM 45.1°F7.3°C 42.1°F5.6°C 89% 4.6 mph SSW7.4 kmh SSW 9.2 mph14.8 kmh 29.75 in1007.5 mb - 0.00 in0.0 mm 0.00 in0.0 mm
03:00 AM 45.1°F7.3°C 41.8°F5.4°C 88% 4.6 mph SW7.4 kmh SW 10.4 mph16.7 kmh 29.75 in1007.5 mb - 0.00 in0.0 mm 0.00 in0.0 mm
03:10 AM 44.9°F7.2°C 41.6°F5.3°C 88% 2.3 mph SSW3.7 kmh SSW 11.5 mph18.5 kmh 29.75 in1007.5 mb - 0.00 in0.0 mm 0.00 in0.0 mm
03:20 AM 44.9°F7.2°C 41.6°F5.3°C 88% 1.2 mph SSW1.9 kmh SSW 8.1 mph13.0 kmh 29.75 in1007.5 mb - 0.00 in0.0 mm 0.00 in0.0 mm
03:30 AM 45.0°F7.2°C 41.7°F5.4°C 88% 6.9 mph SSW11.1 kmh SSW 11.5 mph18.5 kmh 29.74 in1007.1 mb - 0.00 in0.0 mm 0.00 in0.0 mm
03:40 AM 45.2°F7.3°C 41.9°F5.5°C 88% 8.1 mph SSW13.0 kmh SSW 12.7 mph20.4 kmh 29.74 in1007.1 mb - 0.00 in0.0 mm 0.00 in0.0 mm
03:50 AM 45.5°F7.5°C 41.8°F5.4°C 87% 6.9 mph SSW11.1 kmh SSW 15.0 mph24.1 kmh 29.74 in1007.1 mb - 0.00 in0.0 mm 0.00 in0.0 mm
04:00 AM 45.6°F7.6°C 42.0°F5.6°C 87% 6.9 mph SSW11.1 kmh SSW 11.5 mph18.5 kmh 29.74 in1007.1 mb - 0.00 in0.0 mm 0.00 in0.0 mm
04:10 AM 45.6°F7.6°C 41.9°F5.5°C 87% 10.4 mph S16.7 kmh S 13.8 mph22.2 kmh 29.74 in1007.1 mb - 0.00 in0.0 mm 0.00 in0.0 mm
04:20 AM 45.7°F7.6°C 42.0°F5.6°C 87% 10.4 mph SW16.7 kmh SW 15.0 mph24.1 kmh 29.74 in1007.1 mb - 0.00 in0.0 mm 0.00 in0.0 mm
04:30 AM 45.7°F7.6°C 42.1°F5.6°C 87% 6.9 mph S11.1 kmh S 10.4 mph16.7 kmh 29.74 in1007.1 mb - 0.00 in0.0 mm 0.00 in0.0 mm
04:40 AM 45.5°F7.5°C 41.3°F5.2°C 85% 10.4 mph SSW16.7 kmh SSW 16.1 mph25.9 kmh 29.75 in1007.5 mb - 0.00 in0.0 mm 0.00 in0.0 mm
04:50 AM 45.3°F7.4°C 40.4°F4.7°C 83% 9.2 mph SSW14.8 kmh SSW 15.0 mph24.1 kmh 29.75 in1007.5 mb - 0.00 in0.0 mm 0.00 in0.0 mm
05:00 AM 45.1°F7.3°C 39.9°F4.4°C 82% 8.1 mph SSW13.0 kmh SSW 11.5 mph18.5 kmh 29.75 in1007.5 mb - 0.00 in0.0 mm 0.00 in0.0 mm
05:10 AM 44.9°F7.2°C 39.7°F4.3°C 82% 8.1 mph SSW13.0 kmh SSW 11.5 mph18.5 kmh 29.75 in1007.5 mb - 0.00 in0.0 mm 0.00 in0.0 mm
05:20 AM 44.9°F7.2°C 40.4°F4.7°C 84% 5.8 mph SW9.3 kmh SW 11.5 mph18.5 kmh 29.75 in1007.5 mb - 0.00 in0.0 mm 0.00 in0.0 mm
05:30 AM 44.7°F7.1°C 40.5°F4.7°C 85% 5.8 mph SSW9.3 kmh SSW 6.9 mph11.1 kmh 29.75 in1007.5 mb - 0.00 in0.0 mm 0.00 in0.0 mm
05:40 AM 44.5°F6.9°C 40.3°F4.6°C 85% 3.5 mph SSW5.6 kmh SSW 6.9 mph11.1 kmh 29.75 in1007.5 mb - 0.00 in0.0 mm 0.00 in0.0 mm
05:50 AM 44.4°F6.9°C 40.5°F4.7°C 86% 2.3 mph SSW3.7 kmh SSW 6.9 mph11.1 kmh 29.75 in1007.5 mb - 0.00 in0.0 mm 0.00 in0.0 mm
06:00 AM 44.2°F6.8°C 40.6°F4.8°C 87% 1.2 mph S1.9 kmh S 4.6 mph7.4 kmh 29.74 in1007.1 mb - 0.00 in0.0 mm 0.00 in0.0 mm
06:10 AM 44.1°F6.7°C 40.5°F4.7°C 87% 1.2 mph SSW1.9 kmh SSW 4.6 mph7.4 kmh 29.74 in1007.1 mb - 0.00 in0.0 mm 0.00 in0.0 mm
06:20 AM 44.1°F6.7°C 40.8°F4.9°C 88% 2.3 mph SSW3.7 kmh SSW 4.6 mph7.4 kmh 29.74 in1007.1 mb - 0.00 in0.0 mm 0.00 in0.0 mm
06:30 AM 43.8°F6.6°C 40.2°F4.6°C 87% 1.2 mph SW1.9 kmh SW 4.6 mph7.4 kmh 29.74 in1007.1 mb - 0.00 in0.0 mm 0.00 in0.0 mm
06:40 AM 43.5°F6.4°C 39.9°F4.4°C 87% 1.2 mph SSW1.9 kmh SSW 8.1 mph13.0 kmh 29.75 in1007.5 mb - 0.00 in0.0 mm 0.00 in0.0 mm
06:50 AM 43.3°F6.3°C 39.7°F4.3°C 87% 3.5 mph SW5.6 kmh SW 9.2 mph14.8 kmh 29.75 in1007.5 mb - 0.00 in0.0 mm 0.00 in0.0 mm
07:00 AM 43.3°F6.3°C 39.7°F4.3°C 87% 4.6 mph SW7.4 kmh SW 5.8 mph9.3 kmh 29.75 in1007.5 mb - 0.00 in0.0 mm 0.00 in0.0 mm
07:10 AM 43.0°F6.1°C 39.4°F4.1°C 87% 1.2 mph SW1.9 kmh SW 3.5 mph5.6 kmh 29.75 in1007.5 mb - 0.00 in0.0 mm 0.00 in0.0 mm
07:20 AM 42.8°F6.0°C 39.5°F4.2°C 88% Calm Calm -- 29.75 in1007.5 mb - 0.00 in0.0 mm 0.00 in0.0 mm
07:30 AM 42.5°F5.8°C 39.2°F4.0°C 88% 1.2 mph SSW1.9 kmh SSW 4.6 mph7.4 kmh 29.75 in1007.5 mb - 0.00 in0.0 mm 0.00 in0.0 mm
07:40 AM 42.3°F5.7°C 39.3°F4.1°C 89% 1.2 mph SW1.9 kmh SW 3.5 mph5.6 kmh 29.75 in1007.5 mb - 0.00 in0.0 mm 0.00 in0.0 mm
07:50 AM 42.2°F5.7°C 38.9°F3.8°C 88% 3.5 mph SW5.6 kmh SW 5.8 mph9.3 kmh 29.75 in1007.5 mb - 0.00 in0.0 mm 0.00 in0.0 mm
08:00 AM 42.3°F5.7°C 39.0°F3.9°C 88% 3.5 mph SW5.6 kmh SW 4.6 mph7.4 kmh 29.75 in1007.5 mb - 0.00 in0.0 mm 0.00 in0.0 mm
08:10 AM 42.4°F5.8°C 39.1°F3.9°C 88% 3.5 mph SSW5.6 kmh SSW 5.8 mph9.3 kmh 29.75 in1007.5 mb - 0.00 in0.0 mm 0.00 in0.0 mm
08:20 AM 42.4°F5.8°C 39.1°F3.9°C 88% 2.3 mph SSW3.7 kmh SSW 3.5 mph5.6 kmh 29.76 in1007.8 mb - 0.00 in0.0 mm 0.00 in0.0 mm
08:30 AM 42.4°F5.8°C 39.1°F3.9°C 88% Calm Calm 1.2 mph1.9 kmh 29.76 in1007.8 mb - 0.00 in0.0 mm 0.00 in0.0 mm
08:40 AM 42.3°F5.7°C 39.3°F4.1°C 89% 2.3 mph SSW3.7 kmh SSW 4.6 mph7.4 kmh 29.77 in1008.1 mb - 0.00 in0.0 mm 0.00 in0.0 mm
08:50 AM 42.5°F5.8°C 39.5°F4.2°C 89% 4.6 mph SSW7.4 kmh SSW 8.1 mph13.0 kmh 29.76 in1007.8 mb - 0.00 in0.0 mm 0.00 in0.0 mm
09:00 AM 42.7°F5.9°C 39.7°F4.3°C 89% Calm Calm -- 29.76 in1007.8 mb - 0.00 in0.0 mm 0.00 in0.0 mm
09:10 AM 42.7°F5.9°C 39.7°F4.3°C 89% Calm Calm 6.9 mph11.1 kmh 29.76 in1007.8 mb - 0.00 in0.0 mm 0.00 in0.0 mm
09:20 AM 43.1°F6.2°C 40.4°F4.7°C 90% Calm Calm 2.3 mph3.7 kmh 29.76 in1007.8 mb - 0.00 in0.0 mm 0.00 in0.0 mm
09:30 AM 43.7°F6.5°C 41.0°F5.0°C 90% 1.2 mph SSW1.9 kmh SSW 6.9 mph11.1 kmh 29.76 in1007.8 mb - 0.00 in0.0 mm 0.00 in0.0 mm
09:40 AM 44.3°F6.8°C 41.3°F5.2°C 89% 1.2 mph SSW1.9 kmh SSW 4.6 mph7.4 kmh 29.76 in1007.8 mb - 0.00 in0.0 mm 0.00 in0.0 mm
09:50 AM 44.9°F7.2°C 41.6°F5.3°C 88% 4.6 mph S7.4 kmh S 5.8 mph9.3 kmh 29.76 in1007.8 mb - 0.00 in0.0 mm 0.00 in0.0 mm
10:00 AM 45.5°F7.5°C 41.9°F5.5°C 87% 5.8 mph S9.3 kmh S 11.5 mph18.5 kmh 29.76 in1007.8 mb - 0.00 in0.0 mm 0.00 in0.0 mm
10:10 AM 46.4°F8.0°C 42.4°F5.8°C 86% 1.2 mph S1.9 kmh S 4.6 mph7.4 kmh 29.76 in1007.8 mb - 0.00 in0.0 mm 0.00 in0.0 mm
10:20 AM 47.3°F8.5°C 43.3°F6.3°C 86% 3.5 mph S5.6 kmh S 9.2 mph14.8 kmh 29.76 in1007.8 mb - 0.00 in0.0 mm 0.00 in0.0 mm
10:30 AM 48.1°F8.9°C 43.5°F6.4°C 84% 4.6 mph SSW7.4 kmh SSW 9.2 mph14.8 kmh 29.76 in1007.8 mb - 0.00 in0.0 mm 0.00 in0.0 mm
10:40 AM 48.6°F9.2°C 43.7°F6.5°C 83% 5.8 mph SSW9.3 kmh SSW 11.5 mph18.5 kmh 29.76 in1007.8 mb - 0.00 in0.0 mm 0.00 in0.0 mm
10:50 AM 49.4°F9.7°C 44.1°F6.7°C 82% 9.2 mph SW14.8 kmh SW 15.0 mph24.1 kmh 29.76 in1007.8 mb - 0.00 in0.0 mm 0.00 in0.0 mm
11:00 AM 49.8°F9.9°C 43.9°F6.6°C 80% 4.6 mph SSW7.4 kmh SSW 10.4 mph16.7 kmh 29.76 in1007.8 mb - 0.00 in0.0 mm 0.00 in0.0 mm
11:10 AM 50.0°F10.0°C 44.1°F6.7°C 80% 6.9 mph S11.1 kmh S 16.1 mph25.9 kmh 29.75 in1007.5 mb - 0.00 in0.0 mm 0.00 in0.0 mm
11:20 AM 50.3°F10.2°C 43.7°F6.5°C 78% 5.8 mph SSW9.3 kmh SSW 11.5 mph18.5 kmh 29.75 in1007.5 mb - 0.00 in0.0 mm 0.00 in0.0 mm
11:30 AM 50.4°F10.2°C 43.1°F6.2°C 76% 9.2 mph SSW14.8 kmh SSW 12.7 mph20.4 kmh 29.75 in1007.5 mb - 0.00 in0.0 mm 0.00 in0.0 mm
11:40 AM 49.9°F9.9°C 43.3°F6.3°C 78% 6.9 mph SSW11.1 kmh SSW 12.7 mph20.4 kmh 29.75 in1007.5 mb - 0.00 in0.0 mm 0.00 in0.0 mm
11:50 AM 50.4°F10.2°C 42.8°F6.0°C 75% 9.2 mph SSW14.8 kmh SSW 19.6 mph31.5 kmh 29.75 in1007.5 mb - 0.00 in0.0 mm 0.00 in0.0 mm
12:00 PM 50.5°F10.3°C 43.6°F6.4°C 77% 10.4 mph SSW16.7 kmh SSW 12.7 mph20.4 kmh 29.74 in1007.1 mb - 0.00 in0.0 mm 0.00 in0.0 mm
12:10 PM 50.8°F10.4°C 43.8°F6.6°C 77% 8.1 mph SSW13.0 kmh SSW 18.4 mph29.6 kmh 29.74 in1007.1 mb - 0.00 in0.0 mm 0.00 in0.0 mm
12:20 PM 50.8°F10.4°C 43.2°F6.2°C 75% 8.1 mph SW13.0 kmh SW 18.4 mph29.6 kmh 29.73 in1006.8 mb - 0.00 in0.0 mm 0.00 in0.0 mm
12:30 PM 50.9°F10.5°C 43.6°F6.4°C 76% 4.6 mph SSW7.4 kmh SSW 10.4 mph16.7 kmh 29.73 in1006.8 mb - 0.00 in0.0 mm 0.00 in0.0 mm
12:40 PM 50.8°F10.4°C 42.5°F5.8°C 73% 11.5 mph SSW18.5 kmh SSW 18.4 mph29.6 kmh 29.73 in1006.8 mb - 0.00 in0.0 mm 0.00 in0.0 mm
12:50 PM 50.9°F10.5°C 42.2°F5.7°C 72% 10.4 mph S16.7 kmh S 19.6 mph31.5 kmh 29.72 in1006.4 mb - 0.00 in0.0 mm 0.00 in0.0 mm
01:00 PM 50.9°F10.5°C 42.2°F5.7°C 72% 10.4 mph SSW16.7 kmh SSW 16.1 mph25.9 kmh 29.72 in1006.4 mb - 0.00 in0.0 mm 0.00 in0.0 mm
01:10 PM 51.0°F10.6°C 43.0°F6.1°C 74% 12.7 mph SW20.4 kmh SW 20.7 mph33.3 kmh 29.72 in1006.4 mb - 0.00 in0.0 mm 0.00 in0.0 mm
01:20 PM 51.0°F10.6°C 43.4°F6.3°C 75% 12.7 mph SSW20.4 kmh SSW 18.4 mph29.6 kmh 29.71 in1006.1 mb - 0.00 in0.0 mm 0.00 in0.0 mm
01:30 PM 50.7°F10.4°C 42.4°F5.8°C 73% 10.4 mph SSW16.7 kmh SSW 19.6 mph31.5 kmh 29.71 in1006.1 mb - 0.00 in0.0 mm 0.00 in0.0 mm
01:40 PM 50.6°F10.3°C 41.5°F5.3°C 71% 12.7 mph S20.4 kmh S 21.9 mph35.2 kmh 29.71 in1006.1 mb - 0.00 in0.0 mm 0.00 in0.0 mm
01:50 PM 50.5°F10.3°C 41.8°F5.4°C 72% 12.7 mph SSW20.4 kmh SSW 18.4 mph29.6 kmh 29.71 in1006.1 mb - 0.00 in0.0 mm 0.00 in0.0 mm
02:00 PM 50.1°F10.1°C 41.4°F5.2°C 72% 5.8 mph SW9.3 kmh SW 11.5 mph18.5 kmh 29.71 in1006.1 mb - 0.00 in0.0 mm 0.00 in0.0 mm
02:10 PM 49.6°F9.8°C 43.0°F6.1°C 78% 9.2 mph SSW14.8 kmh SSW 15.0 mph24.1 kmh 29.70 in1005.8 mb - 0.01 in0.3 mm 0.01 in0.3 mm
02:20 PM 49.5°F9.7°C 42.9°F6.1°C 78% 12.7 mph SW20.4 kmh SW 18.4 mph29.6 kmh 29.70 in1005.8 mb - 0.00 in0.0 mm 0.01 in0.3 mm
02:30 PM 49.7°F9.8°C 42.4°F5.8°C 76% 5.8 mph SW9.3 kmh SW 11.5 mph18.5 kmh 29.71 in1006.1 mb - 0.00 in0.0 mm 0.01 in0.3 mm
02:40 PM 49.7°F9.8°C 42.4°F5.8°C 76% 5.8 mph SW9.3 kmh SW 6.9 mph11.1 kmh 29.71 in1006.1 mb - 0.00 in0.0 mm 0.01 in0.3 mm
02:50 PM 49.7°F9.8°C 41.7°F5.4°C 74% 8.1 mph SW13.0 kmh SW 11.5 mph18.5 kmh 29.71 in1006.1 mb - 0.00 in0.0 mm 0.01 in0.3 mm
03:00 PM 49.5°F9.7°C 41.6°F5.3°C 74% 6.9 mph SSW11.1 kmh SSW 11.5 mph18.5 kmh 29.71 in1006.1 mb - 0.00 in0.0 mm 0.01 in0.3 mm
03:10 PM 49.3°F9.6°C 41.0°F5.0°C 73% 6.9 mph SSW11.1 kmh SSW 10.4 mph16.7 kmh 29.71 in1006.1 mb - 0.00 in0.0 mm 0.01 in0.3 mm
03:20 PM 49.0°F9.4°C 41.8°F5.4°C 76% 8.1 mph SSW13.0 kmh SSW 13.8 mph22.2 kmh 29.71 in1006.1 mb - 0.00 in0.0 mm 0.01 in0.3 mm
03:30 PM 48.6°F9.2°C 41.7°F5.4°C 77% 4.6 mph S7.4 kmh S 11.5 mph18.5 kmh 29.71 in1006.1 mb - 0.00 in0.0 mm 0.01 in0.3 mm
03:40 PM 48.3°F9.1°C 41.8°F5.4°C 78% 5.8 mph SW9.3 kmh SW 9.2 mph14.8 kmh 29.71 in1006.1 mb - 0.00 in0.0 mm 0.01 in0.3 mm
03:50 PM 47.9°F8.8°C 41.4°F5.2°C 78% 4.6 mph SSW7.4 kmh SSW 10.4 mph16.7 kmh 29.71 in1006.1 mb - 0.00 in0.0 mm 0.01 in0.3 mm
04:00 PM 47.7°F8.7°C 41.8°F5.4°C 80% 5.8 mph SW9.3 kmh SW 11.5 mph18.5 kmh 29.71 in1006.1 mb - 0.00 in0.0 mm 0.01 in0.3 mm
04:10 PM 47.5°F8.6°C 42.0°F5.6°C 81% 6.9 mph SSW11.1 kmh SSW 13.8 mph22.2 kmh 29.71 in1006.1 mb - 0.00 in0.0 mm 0.01 in0.3 mm
04:20 PM 47.4°F8.6°C 41.9°F5.5°C 81% 4.6 mph SSW7.4 kmh SSW 8.1 mph13.0 kmh 29.71 in1006.1 mb - 0.00 in0.0 mm 0.01 in0.3 mm
04:30 PM 46.4°F8.0°C 41.2°F5.1°C 82% 8.1 mph SSW13.0 kmh SSW 11.5 mph18.5 kmh 29.73 in1006.8 mb - 0.02 in0.5 mm 0.02 in0.5 mm
04:40 PM 45.3°F7.4°C 41.1°F5.1°C 85% 3.5 mph SW5.6 kmh SW 6.9 mph11.1 kmh 29.72 in1006.4 mb - 0.00 in0.0 mm 0.02 in0.5 mm
04:50 PM 44.6°F7.0°C 40.7°F4.8°C 86% 5.8 mph SW9.3 kmh SW 8.1 mph13.0 kmh 29.73 in1006.8 mb - 0.00 in0.0 mm 0.02 in0.5 mm
05:00 PM 44.1°F6.7°C 40.8°F4.9°C 88% 2.3 mph S3.7 kmh S 3.5 mph5.6 kmh 29.73 in1006.8 mb - 0.00 in0.0 mm 0.02 in0.5 mm
05:10 PM 43.6°F6.4°C 40.3°F4.6°C 88% 2.3 mph SSW3.7 kmh SSW 10.4 mph16.7 kmh 29.73 in1006.8 mb - 0.00 in0.0 mm 0.02 in0.5 mm
05:20 PM 43.2°F6.2°C 40.2°F4.6°C 89% 3.5 mph S5.6 kmh S 4.6 mph7.4 kmh 29.74 in1007.1 mb - 0.01 in0.3 mm 0.03 in0.8 mm
05:30 PM 43.0°F6.1°C 39.9°F4.4°C 89% 1.2 mph S1.9 kmh S 5.8 mph9.3 kmh 29.74 in1007.1 mb - 0.01 in0.3 mm 0.03 in0.8 mm
05:40 PM 42.8°F6.0°C 39.8°F4.3°C 89% Calm Calm -- 29.74 in1007.1 mb - 0.00 in0.0 mm 0.03 in0.8 mm
05:50 PM 42.7°F5.9°C 40.0°F4.4°C 90% Calm Calm -- 29.74 in1007.1 mb - 0.00 in0.0 mm 0.03 in0.8 mm
06:00 PM 42.6°F5.9°C 39.9°F4.4°C 90% Calm Calm -- 29.74 in1007.1 mb - 0.00 in0.0 mm 0.03 in0.8 mm
06:10 PM 42.5°F5.8°C 39.8°F4.3°C 90% Calm Calm -- 29.75 in1007.5 mb - 0.00 in0.0 mm 0.03 in0.8 mm
06:20 PM 42.5°F5.8°C 39.8°F4.3°C 90% Calm Calm -- 29.75 in1007.5 mb - 0.00 in0.0 mm 0.03 in0.8 mm
06:30 PM 42.5°F5.8°C 40.1°F4.5°C 91% Calm Calm 2.3 mph3.7 kmh 29.75 in1007.5 mb - 0.00 in0.0 mm 0.03 in0.8 mm
06:40 PM 42.6°F5.9°C 40.2°F4.6°C 91% 3.5 mph SSW5.6 kmh SSW 4.6 mph7.4 kmh 29.76 in1007.8 mb - 0.00 in0.0 mm 0.03 in0.8 mm
06:50 PM 43.0°F6.1°C 40.5°F4.7°C 91% Calm Calm 5.8 mph9.3 kmh 29.76 in1007.8 mb - 0.00 in0.0 mm 0.03 in0.8 mm
07:00 PM 43.1°F6.2°C 40.7°F4.8°C 91% 2.3 mph SW3.7 kmh SW 3.5 mph5.6 kmh 29.76 in1007.8 mb - 0.00 in0.0 mm 0.03 in0.8 mm
07:10 PM 43.3°F6.3°C 40.8°F4.9°C 91% 2.3 mph SW3.7 kmh SW 6.9 mph11.1 kmh 29.76 in1007.8 mb - 0.00 in0.0 mm 0.03 in0.8 mm
07:20 PM 43.4°F6.3°C 40.7°F4.8°C 90% Calm Calm 5.8 mph9.3 kmh 29.76 in1007.8 mb - 0.00 in0.0 mm 0.03 in0.8 mm
07:30 PM 43.3°F6.3°C 40.6°F4.8°C 90% 2.3 mph SW3.7 kmh SW 2.3 mph3.7 kmh 29.76 in1007.8 mb - 0.00 in0.0 mm 0.03 in0.8 mm
07:40 PM 43.1°F6.2°C 40.4°F4.7°C 90% Calm Calm 3.5 mph5.6 kmh 29.76 in1007.8 mb - 0.00 in0.0 mm 0.03 in0.8 mm
07:50 PM 42.9°F6.1°C 40.2°F4.6°C 90% 1.2 mph SW1.9 kmh SW -- 29.76 in1007.8 mb - 0.00 in0.0 mm 0.03 in0.8 mm
08:00 PM 42.7°F5.9°C 39.9°F4.4°C 90% Calm Calm -- 29.77 in1008.1 mb - 0.00 in0.0 mm 0.03 in0.8 mm
08:10 PM 42.4°F5.8°C 39.7°F4.3°C 90% Calm Calm -- 29.77 in1008.1 mb - 0.00 in0.0 mm 0.03 in0.8 mm
08:20 PM 42.2°F5.7°C 39.8°F4.3°C 91% 2.3 mph SW3.7 kmh SW 6.9 mph11.1 kmh 29.77 in1008.1 mb - 0.00 in0.0 mm 0.03 in0.8 mm
08:30 PM 42.1°F5.6°C 39.7°F4.3°C 91% 2.3 mph SW3.7 kmh SW 3.5 mph5.6 kmh 29.77 in1008.1 mb - 0.00 in0.0 mm 0.03 in0.8 mm
08:40 PM 42.0°F5.6°C 39.5°F4.2°C 91% 1.2 mph SW1.9 kmh SW 2.3 mph3.7 kmh 29.77 in1008.1 mb - 0.00 in0.0 mm 0.03 in0.8 mm
08:50 PM 42.0°F5.6°C 39.5°F4.2°C 91% Calm Calm -- 29.78 in1008.5 mb - 0.00 in0.0 mm 0.03 in0.8 mm
09:00 PM 41.8°F5.4°C 39.4°F4.1°C 91% 3.5 mph SW5.6 kmh SW 6.9 mph11.1 kmh 29.78 in1008.5 mb - 0.00 in0.0 mm 0.03 in0.8 mm
09:10 PM 41.6°F5.3°C 39.2°F4.0°C 91% 1.2 mph SSW1.9 kmh SSW 4.6 mph7.4 kmh 29.78 in1008.5 mb - 0.00 in0.0 mm 0.03 in0.8 mm
09:20 PM 41.6°F5.3°C 39.2°F4.0°C 91% Calm Calm -- 29.78 in1008.5 mb - 0.00 in0.0 mm 0.03 in0.8 mm
09:30 PM 41.3°F5.2°C 38.9°F3.8°C 91% Calm Calm -- 29.79 in1008.8 mb - 0.00 in0.0 mm 0.03 in0.8 mm
09:40 PM 41.0°F5.0°C 38.3°F3.5°C 90% Calm Calm -- 29.79 in1008.8 mb - 0.00 in0.0 mm 0.03 in0.8 mm
09:50 PM 40.6°F4.8°C 38.2°F3.4°C 91% Calm Calm -- 29.79 in1008.8 mb - 0.00 in0.0 mm 0.03 in0.8 mm
10:00 PM 40.2°F4.6°C 37.8°F3.2°C 91% Calm Calm -- 29.79 in1008.8 mb - 0.00 in0.0 mm 0.03 in0.8 mm
10:10 PM 40.0°F4.4°C 37.6°F3.1°C 91% Calm Calm -- 29.80 in1009.1 mb - 0.00 in0.0 mm 0.03 in0.8 mm
10:20 PM 39.8°F4.3°C 37.4°F3.0°C 91% Calm Calm -- 29.80 in1009.1 mb - 0.00 in0.0 mm 0.03 in0.8 mm
10:30 PM 39.3°F4.1°C 37.2°F2.9°C 92% Calm Calm -- 29.80 in1009.1 mb - 0.00 in0.0 mm 0.03 in0.8 mm
10:40 PM 39.2°F4.0°C 37.0°F2.8°C 92% Calm Calm -- 29.81 in1009.5 mb - 0.00 in0.0 mm 0.03 in0.8 mm
10:50 PM 39.0°F3.9°C 37.1°F2.8°C 93% Calm Calm -- 29.81 in1009.5 mb - 0.00 in0.0 mm 0.03 in0.8 mm
11:00 PM 38.9°F3.8°C 37.0°F2.8°C 93% Calm Calm -- 29.82 in1009.8 mb - 0.00 in0.0 mm 0.03 in0.8 mm
11:10 PM 38.7°F3.7°C 36.9°F2.7°C 93% Calm Calm -- 29.82 in1009.8 mb - 0.00 in0.0 mm 0.03 in0.8 mm
11:20 PM 38.5°F3.6°C 36.6°F2.6°C 93% Calm Calm -- 29.82 in1009.8 mb - 0.00 in0.0 mm 0.03 in0.8 mm
11:30 PM 38.2°F3.4°C 36.4°F2.4°C 93% Calm Calm -- 29.82 in1009.8 mb - 0.00 in0.0 mm 0.03 in0.8 mm
11:40 PM 38.2°F3.4°C 36.4°F2.4°C 93% Calm Calm 1.2 mph1.9 kmh 29.83 in1010.2 mb - 0.00 in0.0 mm 0.03 in0.8 mm
11:50 PM 38.7°F3.7°C 37.1°F2.8°C 94% Calm Calm -- 29.83 in1010.2 mb - 0.00 in0.0 mm 0.03 in0.8 mm